地図

経路データ

SID SEASON NUMBER BASIN SUBBASIN NAME ISO_TIME NATURE LAT LON WMO_WIND WMO_PRES WMO_AGENCY TRACK_TYPE DIST2LAND LANDFALL IFLAG USA_AGENCY USA_ATCF_ID USA_LAT USA_LON USA_RECORD USA_STATUS USA_WIND USA_PRES USA_SSHS USA_R34_NE USA_R34_SE USA_R34_SW USA_R34_NW USA_R50_NE USA_R50_SE USA_R50_SW USA_R50_NW USA_R64_NE USA_R64_SE USA_R64_SW USA_R64_NW USA_POCI USA_ROCI USA_RMW USA_EYE TOKYO_LAT TOKYO_LON TOKYO_GRADE TOKYO_WIND TOKYO_PRES TOKYO_R50_DIR TOKYO_R50_LONG TOKYO_R50_SHORT TOKYO_R30_DIR TOKYO_R30_LONG TOKYO_R30_SHORT TOKYO_LAND CMA_LAT CMA_LON CMA_CAT CMA_WIND CMA_PRES HKO_LAT HKO_LON HKO_CAT HKO_WIND HKO_PRES NEWDELHI_LAT NEWDELHI_LON NEWDELHI_GRADE NEWDELHI_WIND NEWDELHI_PRES NEWDELHI_CI NEWDELHI_DP NEWDELHI_POCI REUNION_LAT REUNION_LON REUNION_TYPE REUNION_WIND REUNION_PRES REUNION_TNUM REUNION_CI REUNION_RMW REUNION_R34_NE REUNION_R34_SE REUNION_R34_SW REUNION_R34_NW REUNION_R50_NE REUNION_R50_SE REUNION_R50_SW REUNION_R50_NW REUNION_R64_NE REUNION_R64_SE REUNION_R64_SW REUNION_R64_NW BOM_LAT BOM_LON BOM_TYPE BOM_WIND BOM_PRES BOM_TNUM BOM_CI BOM_RMW BOM_R34_NE BOM_R34_SE BOM_R34_SW BOM_R34_NW BOM_R50_NE BOM_R50_SE BOM_R50_SW BOM_R50_NW BOM_R64_NE BOM_R64_SE BOM_R64_SW BOM_R64_NW BOM_ROCI BOM_POCI BOM_EYE BOM_POS_METHOD BOM_PRES_METHOD NADI_LAT NADI_LON NADI_CAT NADI_WIND NADI_PRES WELLINGTON_LAT WELLINGTON_LON WELLINGTON_WIND WELLINGTON_PRES DS824_LAT DS824_LON DS824_STAGE DS824_WIND DS824_PRES TD9636_LAT TD9636_LON TD9636_STAGE TD9636_WIND TD9636_PRES TD9635_LAT TD9635_LON TD9635_WIND TD9635_PRES TD9635_ROCI NEUMANN_LAT NEUMANN_LON NEUMANN_CLASS NEUMANN_WIND NEUMANN_PRES MLC_LAT MLC_LON MLC_CLASS MLC_WIND MLC_PRES USA_GUST BOM_GUST BOM_GUST_PER REUNION_GUST REUNION_GUST_PER USA_SEAHGT USA_SEARAD_NE USA_SEARAD_SE USA_SEARAD_SW USA_SEARAD_NW STORM_SPEED STORM_DIR
1971093N28158 1971 39 WP MM NOT_NAMED 1971-04-03 00:00:00 TS 28.0000 157.800 main 1806 1806 __O___________ -1 28.0000 157.800 1 23 1010 5 66
1971093N28158 1971 39 WP MM NOT_NAMED 1971-04-03 03:00:00 TS 28.0976 158.052 main 1825 1825 __P___________ -1 28.0976 158.052 1 23 1010 5 66
1971093N28158 1971 39 WP MM NOT_NAMED 1971-04-03 06:00:00 TS 28.2000 158.300 main 1836 1836 __O___________ -1 28.2000 158.300 1 23 1010 5 62
1971093N28158 1971 39 WP MM NOT_NAMED 1971-04-03 09:00:00 TS 28.3200 158.530 main 1847 1847 __P___________ -1 28.3200 158.530 1 23 1010 5 49
1971093N28158 1971 39 WP MM NOT_NAMED 1971-04-03 12:00:00 TS 28.5000 158.700 main 1852 1844 __O___________ -1 28.5000 158.700 1 23 1010 5 27
1971093N28158 1971 39 WP MM NOT_NAMED 1971-04-03 15:00:00 TS 28.7775 158.787 main 1844 1828 __P___________ -1 28.7775 158.787 1 26 1009 6 8
1971093N28158 1971 39 WP MM NOT_NAMED 1971-04-03 18:00:00 TS 29.1000 158.800 main 1828 1812 __O___________ -1 29.1000 158.800 1 29 1008 6 2
1971093N28158 1971 39 WP MM NOT_NAMED 1971-04-03 21:00:00 TS 29.4224 158.795 main 1812 1788 __P___________ -1 29.4224 158.795 1 29 1008 6 352
1971093N28158 1971 39 WP MM NOT_NAMED 1971-04-04 00:00:00 TS 29.7000 158.700 main 1788 1761 __O___________ -1 29.7000 158.700 1 29 1008 5 328
1971093N28158 1971 39 WP MM NOT_NAMED 1971-04-04 03:00:00 TS 29.8576 158.480 main 1761 1730 __P___________ -1 29.8576 158.480 1 29 1008 5 305
1971093N28158 1971 39 WP MM NOT_NAMED 1971-04-04 06:00:00 TS 30.0000 158.200 main 1730 1694 __O___________ -1 30.0000 158.200 1 29 1008 6 301
1971093N28158 1971 39 WP MM NOT_NAMED 1971-04-04 09:00:00 TS 30.1825 157.854 main 1694 1663 __P___________ -1 30.1825 157.854 1 26 1008 7 319
1971093N28158 1971 39 WP MM NOT_NAMED 1971-04-04 12:00:00 TS 30.5000 157.700 main 1663 1653 __O___________ -1 30.5000 157.700 1 23 1008 9 5
1971093N28158 1971 39 WP MM NOT_NAMED 1971-04-04 15:00:00 TS 31.0696 157.949 main 1653 1653 __P___________ -1 31.0696 157.949 1 23 1008 14 30
1971093N28158 1971 39 WP MM NOT_NAMED 1971-04-04 18:00:00 TS 31.7000 158.500 main 1682 1682 __O___________ -1 31.7000 158.500 1 23 1008 16 44
1971093N28158 1971 39 WP MM NOT_NAMED 1971-04-04 21:00:00 TS 32.2036 159.249 main 1699 1689 __P___________ -1 32.2036 159.249 1 23 1008 16 55
1971093N28158 1971 39 WP MM NOT_NAMED 1971-04-05 00:00:00 TS 32.6000 160.000 main 1693 1682 __O___________ -1 32.6000 160.000 1 23 1008 12 57
1971093N28158 1971 39 WP MM NOT_NAMED 1971-04-05 03:00:00 TS 32.8718 160.461 main 1687 1677 __P___________ -1 32.8718 160.461 1 23 1008 8 53
1971093N28158 1971 39 WP MM NOT_NAMED 1971-04-05 06:00:00 TS 33.1000 160.800 main 1682 1668 __O___________ -1 33.1000 160.800 1 23 1008 8 49
1971093N28158 1971 39 WP MM NOT_NAMED 1971-04-05 09:00:00 TS 33.3773 161.151 main 1673 1660 __P___________ -1 33.3773 161.151 1 21 1009 8 44
1971093N28158 1971 39 WP MM NOT_NAMED 1971-04-05 12:00:00 TS 33.7000 161.500 main 1660 1638 __O___________ -1 33.7000 161.500 0 19 1010 9 39
1971093N28158 1971 39 WP MM NOT_NAMED 1971-04-05 15:00:00 TS 34.1072 161.870 main 1644 1623 __P___________ -1 34.1072 161.870 0 19 1011 10 40
1971093N28158 1971 39 WP MM NOT_NAMED 1971-04-05 18:00:00 TS 34.5000 162.300 main 1629 1621 __O___________ -1 34.5000 162.300 0 19 1012 10 49
1971093N28158 1971 39 WP MM NOT_NAMED 1971-04-05 21:00:00 TS 34.7872 162.805 main 1628 1628 __P___________ -1 34.7872 162.805 0 1013 10 61
1971093N28158 1971 39 WP MM NOT_NAMED 1971-04-06 00:00:00 ET 35.0000 163.400 main 1644 1644 __O___________ -1 35.0000 163.400 9 1014 11 70
1971093N28158 1971 39 WP MM NOT_NAMED 1971-04-06 03:00:00 ET 35.1727 164.093 main 1666 1666 __P___________ -1 35.1727 164.093 9 1014 12 75
1971093N28158 1971 39 WP MM NOT_NAMED 1971-04-06 06:00:00 ET 35.3000 164.800 main 1699 1699 __O___________ -1 35.3000 164.800 9 1014 11 81
1971093N28158 1971 39 WP MM NOT_NAMED 1971-04-06 09:00:00 ET 35.3466 165.395 main 1735 1726 __P___________ -1 35.3466 165.395 9 1014 10 78
1971093N28158 1971 39 WP MM NOT_NAMED 1971-04-06 12:00:00 ET 35.5000 166.000 main 1755 1755 __O___________ -1 35.5000 166.000 9 1014 12 63
1971093N28158 1971 39 WP MM NOT_NAMED 1971-04-06 15:00:00 ET 35.9100 166.728 main 1767 1765 __P___________ -1 35.9100 166.728 9 1014 16 51
1971093N28158 1971 39 WP MM NOT_NAMED 1971-04-06 18:00:00 ET 36.5000 167.500 main 1773 1749 __O___________ -1 36.5000 167.500 9 1015 18 44
1971093N28158 1971 39 WP MM NOT_NAMED 1971-04-06 21:00:00 ET 37.1807 168.255 main 1748 1714 __P___________ -1 37.1807 168.255 9 1015 18 40
1971093N28158 1971 39 WP MM NOT_NAMED 1971-04-07 00:00:00 ET 37.9000 169.000 main 1714 __O___________ -1 37.9000 169.000 9 1016 19 39

デジタル台風データ・検索

IBTrACS Databaseについて

本データベースは、米国NOAAが公開する1842年以降の世界の熱帯低気圧のベストトラックデータアーカイブInternational Best Track Archive for Climate Stewardship (IBTrACS)を、ウェブで閲覧しやすい形式に変換したものです。

最終更新日:2021-11-26